Time;durP1;ratioP1;P1;durP2;ratioP2;P2;SDS_P1;SDS_P2;PMS_P1;PMS_P2;Temp;Humidity;BMP_temperature;BMP_pressure;BME280_temperature;BME280_humidity;BME280_pressure;Samples;Min_cycle;Max_cycle;Signal;HPM_P1;HPM_P2
2021/06/25 00:00:15;;;;;;;21.75;10.63;;;;;;;25.07;77.59;100382.53;5031461;28;20029;-72
2021/06/25 00:02:41;;;;;;;22.80;10.48;;;;;;;24.88;77.72;100375.06;4989364;28;20037;-70
2021/06/25 00:05:08;;;;;;;19.52;10.85;;;;;;;24.30;79.44;100348.19;4990113;28;20066;-72
2021/06/25 00:07:33;;;;;;;21.33;10.95;;;;;;;24.65;78.60;100372.94;4990382;28;20038;-72
2021/06/25 00:09:59;;;;;;;18.90;10.73;;;;;;;24.66;78.34;100372.06;4990123;28;20026;-73
2021/06/25 00:12:24;;;;;;;16.90;10.18;;;;;;;24.79;77.68;100362.94;4989924;28;20177;-70
2021/06/25 00:14:50;;;;;;;19.02;10.05;;;;;;;25.11;76.48;100363.06;4990203;28;20030;-69
2021/06/25 00:17:15;;;;;;;18.92;9.65;;;;;;;25.02;75.47;100329.81;4990268;28;20076;-71
2021/06/25 00:19:41;;;;;;;15.95;10.75;;;;;;;25.31;75.54;100365.19;4974091;28;20026;-72
2021/06/25 00:22:06;;;;;;;19.10;10.43;;;;;;;25.45;74.84;100364.88;4990150;28;20489;-73
2021/06/25 00:24:32;;;;;;;19.73;10.38;;;;;;;25.67;74.29;100366.03;4990312;28;20054;-72
2021/06/25 00:26:57;;;;;;;18.13;10.93;;;;;;;25.88;73.80;100368.97;4990316;28;20145;-71
2021/06/25 00:29:23;;;;;;;21.38;11.25;;;;;;;25.93;73.44;100363.56;4990177;28;20030;-74
2021/06/25 00:31:49;;;;;;;15.55;10.07;;;;;;;25.94;74.25;100370.59;4989987;28;20117;-73
2021/06/25 00:34:15;;;;;;;18.05;11.02;;;;;;;25.95;74.23;100377.63;5020812;28;20042;-72
2021/06/25 00:36:41;;;;;;;21.67;11.20;;;;;;;25.91;74.54;100376.84;5031488;28;20029;-74
2021/06/25 00:39:06;;;;;;;18.30;10.35;;;;;;;25.92;74.66;100388.25;5031641;28;20029;-73
2021/06/25 00:41:32;;;;;;;18.58;10.57;;;;;;;25.96;75.46;100380.22;5030378;28;20025;-74
2021/06/25 00:43:57;;;;;;;29.20;11.27;;;;;;;26.09;74.39;100385.19;5031359;28;20032;-71
2021/06/25 00:46:23;;;;;;;20.52;10.30;;;;;;;26.07;74.27;100392.28;5031618;28;20100;-73
2021/06/25 00:48:49;;;;;;;26.20;11.10;;;;;;;25.89;74.65;100396.31;5028522;28;20487;-72
2021/06/25 00:51:16;;;;;;;23.67;10.10;;;;;;;25.82;75.04;100393.81;5028035;28;20029;-72
2021/06/25 00:53:56;;;;;;;27.85;11.07;;;;;;;25.93;74.98;100400.59;5032896;28;20025;-72
2021/06/25 00:56:27;;;;;;;22.27;10.35;;;;;;;26.00;74.58;100381.84;4970688;28;20553;-72
2021/06/25 00:58:53;;;;;;;25.13;10.57;;;;;;;26.12;74.05;100396.53;5031315;28;20032;-71
2021/06/25 01:01:18;;;;;;;15.77;10.13;;;;;;;26.09;73.55;100385.19;5031535;28;20026;-72
2021/06/25 01:03:44;;;;;;;14.07;9.50;;;;;;;26.16;73.19;100392.03;5031549;28;20029;-72
2021/06/25 01:06:10;;;;;;;18.50;10.38;;;;;;;26.16;73.30;100392.88;5013378;28;20033;-69
2021/06/25 01:08:37;;;;;;;30.00;10.85;;;;;;;26.05;73.65;100388.81;5031234;28;20027;-72
2021/06/25 01:11:04;;;;;;;25.40;10.27;;;;;;;25.87;73.56;100356.69;5030954;28;20061;-74
2021/06/25 01:13:31;;;;;;;21.10;10.05;;;;;;;25.93;73.51;100387.38;5031517;28;20045;-71
2021/06/25 01:15:57;;;;;;;20.98;10.75;;;;;;;25.76;74.30;100361.41;5031087;28;20061;-72
2021/06/25 01:18:22;;;;;;;20.52;9.98;;;;;;;25.90;74.60;100375.09;5031218;28;20483;-70
2021/06/25 01:20:48;;;;;;;17.63;9.80;;;;;;;25.84;74.39;100362.03;5013724;28;20364;-72
2021/06/25 01:23:14;;;;;;;16.90;9.38;;;;;;;26.01;73.76;100382.72;5031064;28;20028;-72
2021/06/25 01:25:40;;;;;;;17.52;9.45;;;;;;;26.10;73.35;100389.56;5030688;28;20120;-72
2021/06/25 01:28:11;;;;;;;19.20;9.25;;;;;;;26.16;73.33;100386.75;5031016;28;20026;-74
2021/06/25 01:30:43;;;;;;;19.08;9.35;;;;;;;26.11;73.12;100376.28;5031160;28;20049;-70
2021/06/25 01:33:12;;;;;;;19.20;9.63;;;;;;;25.99;73.42;100368.66;5030914;28;20048;-72
2021/06/25 01:35:38;;;;;;;16.67;9.77;;;;;;;25.87;73.97;100359.31;5030848;28;20032;-70
2021/06/25 01:38:04;;;;;;;20.92;9.98;;;;;;;25.82;74.36;100362.09;5013021;28;20028;-72
2021/06/25 01:40:31;;;;;;;21.25;10.27;;;;;;;25.40;75.03;100322.72;5030770;28;20041;-77
2021/06/25 01:43:02;;;;;;;22.25;10.07;;;;;;;25.47;75.92;100363.03;5030560;28;20033;-72
2021/06/25 01:45:31;;;;;;;20.23;9.90;;;;;;;25.46;76.22;100369.22;4996187;28;20132;-71
2021/06/25 01:47:57;;;;;;;20.42;9.85;;;;;;;25.24;77.56;100372.41;5028925;28;20036;-70
2021/06/25 01:50:25;;;;;;;26.20;10.18;;;;;;;25.08;78.21;100374.56;5030896;28;20112;-71
2021/06/25 01:52:57;;;;;;;29.17;10.95;;;;;;;25.10;78.08;100356.91;5031431;28;20049;-73
2021/06/25 01:55:23;;;;;;;23.48;10.82;;;;;;;24.97;78.23;100332.59;5024951;28;20036;-72
2021/06/25 01:57:49;;;;;;;18.35;10.30;;;;;;;24.27;76.64;100258.59;5024471;28;20464;-71
2021/06/25 02:00:16;;;;;;;16.63;9.85;;;;;;;24.28;77.99;100365.84;5023036;28;20029;-72
2021/06/25 02:02:41;;;;;;;15.48;10.02;;;;;;;24.41;77.65;100371.72;5024672;28;20022;-70
2021/06/25 02:05:09;;;;;;;12.88;10.18;;;;;;;24.34;77.80;100377.13;4995601;28;20120;-71
2021/06/25 02:07:35;;;;;;;21.25;9.95;;;;;;;24.09;78.78;100362.72;5025667;28;20720;-69
2021/06/25 02:10:01;;;;;;;17.60;10.95;;;;;;;23.97;79.37;100377.88;5024907;28;20044;-69
2021/06/25 02:12:27;;;;;;;17.95;10.60;;;;;;;23.98;79.33;100376.13;5023973;28;20038;-72
2021/06/25 02:14:53;;;;;;;16.45;11.05;;;;;;;24.00;79.19;100382.22;5022873;28;20361;-71
2021/06/25 02:17:20;;;;;;;23.70;12.13;;;;;;;23.71;80.85;100391.53;5024559;28;20475;-69
2021/06/25 02:19:45;;;;;;;20.88;12.05;;;;;;;23.72;80.67;100378.31;5023532;28;20045;-71
2021/06/25 02:22:11;;;;;;;22.83;12.75;;;;;;;23.64;81.10;100372.34;5006974;28;20045;-73
2021/06/25 02:24:37;;;;;;;21.42;12.57;;;;;;;23.30;82.15;100348.38;5025067;28;20024;-73
2021/06/25 02:27:03;;;;;;;17.73;12.10;;;;;;;23.16;82.67;100344.22;5024544;28;20064;-73
2021/06/25 02:29:28;;;;;;;22.30;13.00;;;;;;;23.20;83.58;100374.00;5023573;28;20483;-75
2021/06/25 02:31:54;;;;;;;18.83;12.32;;;;;;;23.03;83.15;100329.47;5022565;28;20013;-71
2021/06/25 02:34:19;;;;;;;16.45;11.52;;;;;;;23.47;82.24;100367.38;5022221;28;20488;-73
2021/06/25 02:36:45;;;;;;;19.70;10.95;;;;;;;23.50;81.05;100356.81;5023957;28;20014;-70
2021/06/25 02:39:10;;;;;;;22.88;11.15;;;;;;;23.54;80.53;100342.66;5006103;28;20458;-72
2021/06/25 02:41:36;;;;;;;17.38;11.90;;;;;;;23.72;79.96;100345.84;4987075;28;20065;-74
2021/06/25 02:44:02;;;;;;;20.10;10.90;;;;;;;24.06;77.90;100353.09;5024390;28;20075;-72
2021/06/25 02:46:28;;;;;;;21.33;10.82;;;;;;;24.21;76.82;100355.44;5024980;28;20037;-72
2021/06/25 02:48:54;;;;;;;17.23;10.07;;;;;;;23.89;76.72;100293.63;5022277;28;20017;-70
2021/06/25 02:51:19;;;;;;;23.27;10.57;;;;;;;24.36;75.87;100358.59;5024211;28;20079;-72
2021/06/25 02:53:45;;;;;;;17.83;10.65;;;;;;;24.35;75.97;100349.84;5022669;28;20029;-74
2021/06/25 02:56:10;;;;;;;16.33;10.10;;;;;;;24.16;75.53;100316.84;5022799;28;20550;-71
2021/06/25 02:58:36;;;;;;;15.48;10.35;;;;;;;23.84;76.61;100331.53;5024148;28;20014;-73
2021/06/25 03:01:01;;;;;;;17.73;9.68;;;;;;;23.97;76.45;100330.41;5023956;28;20483;-75
2021/06/25 03:03:27;;;;;;;15.75;9.95;;;;;;;24.01;75.89;100308.38;5028910;28;20387;-73
2021/06/25 03:05:52;;;;;;;18.35;10.18;;;;;;;24.34;75.35;100341.97;5031942;28;20375;-73
2021/06/25 03:08:19;;;;;;;19.45;10.48;;;;;;;24.33;75.28;100327.88;5031903;28;20009;-70
2021/06/25 03:10:46;;;;;;;14.30;9.55;;;;;;;24.43;75.08;100331.19;5031968;28;20037;-73
2021/06/25 03:13:12;;;;;;;16.17;10.02;;;;;;;24.44;75.38;100326.81;5032192;28;20041;-73
2021/06/25 03:15:38;;;;;;;13.57;9.98;;;;;;;24.33;75.79;100317.34;5032022;28;20558;-72
2021/06/25 03:18:04;;;;;;;16.48;10.15;;;;;;;24.25;75.22;100302.59;5031858;28;20097;-72
2021/06/25 03:20:29;;;;;;;17.00;10.60;;;;;;;24.59;74.70;100338.78;4998535;28;20026;-73
2021/06/25 03:22:55;;;;;;;20.65;10.27;;;;;;;23.97;75.14;100227.59;5032006;28;20064;-71
2021/06/25 03:25:20;;;;;;;22.13;11.30;;;;;;;24.55;75.64;100325.63;5029166;28;20018;-74
2021/06/25 03:27:46;;;;;;;18.67;10.35;;;;;;;24.38;75.37;100285.56;5031327;28;20456;-70
2021/06/25 03:30:12;;;;;;;19.65;10.73;;;;;;;24.78;74.97;100341.88;5031504;28;20016;-73
2021/06/25 03:32:38;;;;;;;24.98;11.73;;;;;;;24.75;74.74;100324.34;5031801;28;20029;-73
2021/06/25 03:35:06;;;;;;;21.02;11.48;;;;;;;24.84;74.35;100331.16;5012890;28;20056;-73
2021/06/25 03:37:32;;;;;;;22.10;10.30;;;;;;;24.70;74.65;100305.97;5013919;28;20088;-70
2021/06/25 03:39:58;;;;;;;20.92;9.98;;;;;;;24.59;75.12;100337.00;5031413;28;20025;-73
2021/06/25 03:42:23;;;;;;;23.25;11.77;;;;;;;24.23;77.40;100334.28;5031387;28;20159;-72
2021/06/25 03:44:49;;;;;;;17.92;10.63;;;;;;;23.66;76.20;100222.09;5031108;28;20104;-75
2021/06/25 03:47:15;;;;;;;18.38;10.98;;;;;;;24.36;75.95;100333.13;5013287;28;20105;-72
2021/06/25 03:49:42;;;;;;;16.33;10.85;;;;;;;24.35;76.17;100335.75;4995728;28;20060;-70
2021/06/25 03:52:08;;;;;;;21.48;11.75;;;;;;;24.21;76.57;100336.97;5013835;28;20460;-70
2021/06/25 03:54:34;;;;;;;18.33;11.60;;;;;;;23.82;77.36;100302.56;5031133;28;20029;-73
2021/06/25 03:56:59;;;;;;;20.85;11.82;;;;;;;23.95;77.62;100332.25;5030972;28;20376;-73
2021/06/25 03:59:25;;;;;;;24.55;11.80;;;;;;;23.93;78.08;100326.13;5031394;28;20029;-73
2021/06/25 04:01:52;;;;;;;19.10;11.82;;;;;;;23.91;78.08;100325.25;5030160;28;20475;-72
2021/06/25 04:04:18;;;;;;;21.63;11.98;;;;;;;23.89;78.54;100329.69;5028678;28;20025;-73
2021/06/25 04:06:43;;;;;;;18.38;11.07;;;;;;;23.85;78.41;100293.72;5024808;28;20021;-73
2021/06/25 04:09:09;;;;;;;20.00;11.88;;;;;;;23.90;78.20;100297.13;5022027;28;20046;-74
2021/06/25 04:11:34;;;;;;;17.88;11.80;;;;;;;24.06;78.40;100329.34;5020617;28;20096;-72
2021/06/25 04:14:00;;;;;;;18.77;11.93;;;;;;;23.88;79.17;100306.88;5022183;28;20032;-74
2021/06/25 04:16:26;;;;;;;20.90;12.68;;;;;;;23.64;81.11;100321.38;5021911;28;20017;-70
2021/06/25 04:18:51;;;;;;;23.50;13.20;;;;;;;23.07;84.79;100323.28;5020987;28;20009;-70
2021/06/25 04:21:20;;;;;;;16.60;12.43;;;;;;;23.00;84.85;100290.91;5029661;28;20391;-73
2021/06/25 04:23:47;;;;;;;26.95;14.18;;;;;;;23.54;83.04;100331.22;5031852;28;20013;-73
2021/06/25 04:26:12;;;;;;;24.27;13.77;;;;;;;23.41;83.42;100310.41;5014004;28;20486;-73
2021/06/25 04:28:38;;;;;;;21.77;12.15;;;;;;;23.73;82.27;100322.06;5013592;28;20121;-73
2021/06/25 04:31:03;;;;;;;19.63;13.98;;;;;;;23.95;81.18;100321.69;5031529;28;20025;-73
2021/06/25 04:33:29;;;;;;;23.52;13.98;;;;;;;23.82;81.65;100301.72;5031560;28;20014;-70
2021/06/25 04:35:55;;;;;;;24.88;13.60;;;;;;;24.01;81.63;100316.28;5031597;28;20101;-70
2021/06/25 04:38:21;;;;;;;22.25;13.88;;;;;;;24.00;81.98;100327.72;5031770;28;20021;-71
2021/06/25 04:40:47;;;;;;;21.48;14.32;;;;;;;24.14;82.72;100339.72;5031910;28;20124;-73
2021/06/25 04:43:15;;;;;;;22.45;14.50;;;;;;;24.21;82.62;100328.16;5031859;28;20403;-73
2021/06/25 04:45:41;;;;;;;27.63;14.32;;;;;;;24.22;82.46;100324.63;5031649;28;20025;-70
2021/06/25 04:48:10;;;;;;;23.45;15.32;;;;;;;24.39;83.26;100333.03;5032021;28;20033;-73
2021/06/25 04:50:36;;;;;;;23.35;15.15;;;;;;;24.39;83.32;100316.34;5031887;28;20022;-73
2021/06/25 04:53:04;;;;;;;20.75;15.32;;;;;;;24.33;83.00;100325.25;5031794;28;20025;-73
2021/06/25 04:55:30;;;;;;;21.55;14.40;;;;;;;24.44;83.29;100316.25;5031361;28;20076;-71
2021/06/25 04:57:56;;;;;;;25.33;15.25;;;;;;;24.67;81.52;100327.16;5031677;28;20026;-74
2021/06/25 05:00:24;;;;;;;20.65;14.93;;;;;;;24.80;80.75;100330.38;5031647;28;20029;-71
2021/06/25 05:02:50;;;;;;;30.00;15.80;;;;;;;24.95;80.40;100330.88;5030782;28;20084;-71
2021/06/25 05:05:16;;;;;;;28.83;15.52;;;;;;;24.98;80.58;100304.41;5017158;28;20021;-70
2021/06/25 05:07:43;;;;;;;24.40;15.70;;;;;;;25.18;81.15;100333.81;5031495;28;20039;-71
2021/06/25 05:10:10;;;;;;;21.38;13.73;;;;;;;25.36;79.33;100331.59;5013699;28;20025;-73
2021/06/25 05:12:36;;;;;;;26.27;14.35;;;;;;;25.48;79.01;100336.59;5030966;28;20112;-74
2021/06/25 05:15:02;;;;;;;32.38;14.55;;;;;;;25.56;78.72;100319.63;5013892;28;20108;-75
2021/06/25 05:17:28;;;;;;;21.33;14.70;;;;;;;25.71;78.96;100323.63;5031221;28;20025;-73
2021/06/25 05:19:54;;;;;;;23.55;14.77;;;;;;;25.48;79.39;100277.56;5031535;28;20014;-73
2021/06/25 05:22:19;;;;;;;23.85;14.52;;;;;;;25.76;79.46;100319.09;5030902;28;20021;-71
2021/06/25 05:24:45;;;;;;;20.98;15.25;;;;;;;25.54;80.03;100285.31;5029257;28;20029;-74
2021/06/25 05:27:10;;;;;;;24.63;14.82;;;;;;;25.63;79.82;100287.72;5032755;28;20079;-70
2021/06/25 05:29:36;;;;;;;23.60;15.15;;;;;;;25.81;79.77;100299.53;5034769;28;20105;-70
2021/06/25 05:32:05;;;;;;;20.17;15.23;;;;;;;25.87;79.21;100301.16;5034904;28;20044;-66
2021/06/25 05:34:30;;;;;;;19.77;15.25;;;;;;;26.00;79.80;100323.66;5034727;28;20025;-67
2021/06/25 05:36:56;;;;;;;26.20;14.40;;;;;;;26.06;78.77;100317.34;5034601;28;20033;-71
2021/06/25 05:39:22;;;;;;;23.23;14.05;;;;;;;26.19;77.37;100315.19;5034220;28;20017;-68
2021/06/25 05:41:47;;;;;;;22.67;14.50;;;;;;;26.28;79.05;100307.00;5031254;28;20056;-71
2021/06/25 05:44:13;;;;;;;20.35;13.82;;;;;;;26.34;79.34;100315.66;5034457;28;20013;-71
2021/06/25 05:46:39;;;;;;;26.50;12.63;;;;;;;26.45;77.62;100313.53;5034231;28;20021;-71
2021/06/25 05:49:05;;;;;;;21.08;12.48;;;;;;;26.60;74.20;100320.97;5016836;28;20049;-71
2021/06/25 05:51:31;;;;;;;20.55;11.82;;;;;;;26.72;74.53;100316.22;5034124;28;20073;-70
2021/06/25 05:53:57;;;;;;;20.20;13.02;;;;;;;26.85;73.84;100311.41;5034256;28;20498;-70
2021/06/25 05:56:22;;;;;;;22.55;13.57;;;;;;;26.78;76.05;100294.84;5034084;28;20108;-67
2021/06/25 05:58:48;;;;;;;23.23;13.60;;;;;;;26.87;74.66;100314.88;5016385;28;20025;-69
2021/06/25 06:01:13;;;;;;;24.55;14.02;;;;;;;26.96;74.09;100312.75;5033854;28;20052;-69
2021/06/25 06:03:39;;;;;;;21.98;14.32;;;;;;;27.08;73.11;100310.63;5000011;28;20037;-68
2021/06/25 06:06:06;;;;;;;20.77;15.25;;;;;;;27.16;73.71;100313.88;5033658;28;20057;-71
2021/06/25 06:08:31;;;;;;;20.77;14.50;;;;;;;27.29;73.15;100307.22;5033920;28;20422;-68
2021/06/25 06:10:57;;;;;;;24.98;15.43;;;;;;;27.31;73.83;100293.06;5015004;28;20124;-72
2021/06/25 06:13:22;;;;;;;22.90;15.07;;;;;;;27.36;73.16;100299.06;5033759;28;20124;-70
2021/06/25 06:15:48;;;;;;;22.10;16.23;;;;;;;27.41;72.29;100297.13;5033838;28;20018;-68
2021/06/25 06:18:27;;;;;;;22.80;15.07;;;;;;;27.51;71.92;100281.78;5006813;28;20037;-68
2021/06/25 06:20:53;;;;;;;28.58;15.55;;;;;;;27.63;72.09;100289.28;5033532;28;20036;-71
2021/06/25 06:31:32;;;;;;;23.08;15.07;;;;;;;27.80;72.64;100290.44;5030156;28;20036;-70
2021/06/25 06:34:00;;;;;;;25.52;15.63;;;;;;;27.86;70.85;100292.84;5015934;28;20051;-68
2021/06/25 06:39:08;;;;;;;23.33;14.18;;;;;;;27.91;69.74;100296.19;5032339;28;20083;-68
2021/06/25 06:41:36;;;;;;;23.75;13.90;;;;;;;28.09;70.48;100292.84;5033363;28;20096;-70
2021/06/25 06:44:03;;;;;;;21.30;12.90;;;;;;;27.93;67.68;100242.13;5033455;28;20402;-73
2021/06/25 06:46:29;;;;;;;22.30;12.68;;;;;;;28.20;67.57;100259.72;5033051;28;20035;-69
2021/06/25 06:48:55;;;;;;;20.38;12.55;;;;;;;28.49;67.47;100285.09;5033070;28;20029;-71
2021/06/25 06:51:21;;;;;;;19.73;12.27;;;;;;;28.61;66.04;100267.78;5031684;28;20059;-71
2021/06/25 06:53:47;;;;;;;24.17;12.85;;;;;;;28.72;64.73;100262.94;5030053;28;21026;-71
2021/06/25 06:56:16;;;;;;;18.38;12.43;;;;;;;28.66;64.95;100260.50;5014935;28;20033;-71
2021/06/25 06:58:42;;;;;;;16.70;11.57;;;;;;;28.85;64.29;100262.44;5033130;28;20386;-70
2021/06/25 07:01:09;;;;;;;20.70;12.48;;;;;;;28.99;63.44;100256.50;5032649;28;20021;-68
2021/06/25 07:03:35;;;;;;;27.67;12.40;;;;;;;28.94;65.41;100255.84;5033019;28;20467;-70
2021/06/25 07:06:00;;;;;;;24.98;11.68;;;;;;;28.57;63.18;100191.81;5032982;28;20041;-68
2021/06/25 07:08:27;;;;;;;24.20;11.35;;;;;;;28.93;63.20;100231.06;5015035;28;20060;-71
2021/06/25 07:10:53;;;;;;;18.23;9.77;;;;;;;29.20;61.96;100246.72;5032855;28;20025;-70
2021/06/25 07:13:19;;;;;;;21.30;10.90;;;;;;;29.37;61.99;100254.84;5032734;28;20064;-70
2021/06/25 07:15:44;;;;;;;20.10;10.68;;;;;;;29.45;62.46;100265.13;5015160;28;20029;-69
2021/06/25 07:18:10;;;;;;;17.50;10.18;;;;;;;29.46;61.14;100264.22;5032487;28;20024;-68
2021/06/25 07:20:36;;;;;;;21.17;10.27;;;;;;;29.41;61.44;100250.25;5032380;28;20091;-67
2021/06/25 07:23:03;;;;;;;16.67;10.50;;;;;;;29.57;60.32;100257.53;5032678;28;20096;-68
2021/06/25 07:25:29;;;;;;;18.08;11.63;;;;;;;29.69;63.31;100262.28;5032372;28;20017;-68
2021/06/25 07:27:55;;;;;;;21.15;11.77;;;;;;;29.76;62.96;100252.22;5031374;28;20174;-71
2021/06/25 07:30:21;;;;;;;28.30;12.60;;;;;;;29.91;63.60;100267.50;4995692;28;20029;-68
2021/06/25 07:32:47;;;;;;;24.17;12.57;;;;;;;29.98;63.71;100265.41;5032225;28;20702;-68
2021/06/25 07:35:13;;;;;;;17.65;10.85;;;;;;;29.95;61.59;100257.56;5014657;28;20029;-69
2021/06/25 07:37:39;;;;;;;22.33;11.20;;;;;;;29.89;62.13;100266.69;5032264;28;20027;-70
2021/06/25 07:40:06;;;;;;;18.45;10.60;;;;;;;29.94;61.81;100262.03;5014782;28;20051;-70
2021/06/25 07:42:33;;;;;;;23.33;10.35;;;;;;;30.02;60.33;100256.34;5031987;28;20029;-70
2021/06/25 07:44:59;;;;;;;20.02;12.10;;;;;;;30.18;61.38;100256.47;5014306;28;20086;-70
2021/06/25 07:47:25;;;;;;;23.15;11.85;;;;;;;30.27;61.08;100249.81;5031912;28;20479;-70
2021/06/25 07:49:52;;;;;;;21.55;11.85;;;;;;;30.39;61.86;100257.22;5013805;28;20471;-68
2021/06/25 07:52:18;;;;;;;22.88;11.50;;;;;;;30.36;65.00;100261.81;5028984;28;20029;-69
2021/06/25 07:54:44;;;;;;;19.40;9.70;;;;;;;30.22;58.18;100247.41;5014495;28;20017;-69
2021/06/25 07:57:09;;;;;;;18.65;8.85;;;;;;;30.43;58.88;100248.16;5031189;28;20056;-71
2021/06/25 07:59:35;;;;;;;18.20;8.93;;;;;;;30.56;54.56;100247.56;5031813;28;20022;-71
2021/06/25 08:02:01;;;;;;;22.45;8.70;;;;;;;30.33;53.70;100183.81;5032177;28;20040;-71
2021/06/25 08:04:28;;;;;;;17.25;8.10;;;;;;;30.83;55.06;100231.97;5032196;28;20067;-72
2021/06/25 08:06:54;;;;;;;16.38;7.90;;;;;;;30.94;52.04;100234.94;5031443;28;20021;-72
2021/06/25 08:09:20;;;;;;;17.20;8.40;;;;;;;31.12;51.88;100245.63;5031746;28;20062;-74
2021/06/25 08:11:46;;;;;;;21.80;7.85;;;;;;;31.19;52.00;100228.34;5031343;28;20033;-72
2021/06/25 08:14:12;;;;;;;27.48;8.98;;;;;;;31.42;51.16;100232.44;5031515;28;20021;-71
2021/06/25 08:16:37;;;;;;;19.65;7.93;;;;;;;31.45;50.69;100226.06;5031721;28;20025;-74
2021/06/25 08:19:03;;;;;;;18.17;8.23;;;;;;;31.52;50.77;100226.63;5031823;28;20521;-73
2021/06/25 08:21:31;;;;;;;18.15;8.20;;;;;;;31.36;51.78;100219.44;5031512;28;20156;-73
2021/06/25 08:23:57;;;;;;;14.32;7.50;;;;;;;31.55;51.79;100237.94;5031294;28;20033;-73
2021/06/25 08:26:22;;;;;;;19.77;7.93;;;;;;;31.61;50.21;100242.97;5031041;28;20014;-73
2021/06/25 08:28:49;;;;;;;18.70;7.68;;;;;;;31.69;48.86;100250.59;5031543;28;20107;-74
2021/06/25 08:31:15;;;;;;;15.45;6.47;;;;;;;31.72;47.68;100244.22;5031308;28;20473;-73
2021/06/25 08:33:41;;;;;;;20.00;8.20;;;;;;;31.70;49.07;100256.78;5031088;28;20451;-73
2021/06/25 08:36:07;;;;;;;17.75;7.18;;;;;;;31.76;49.23;100246.63;5014052;28;20032;-72
2021/06/25 08:38:32;;;;;;;21.85;7.78;;;;;;;31.54;49.18;100235.38;4989416;28;20057;-72
2021/06/25 08:40:59;;;;;;;18.52;7.72;;;;;;;31.68;49.27;100248.00;4987439;28;20030;-73
2021/06/25 08:43:25;;;;;;;20.45;8.43;;;;;;;31.77;47.12;100232.34;4973298;28;20117;-72
2021/06/25 08:45:51;;;;;;;15.88;7.13;;;;;;;31.95;50.00;100237.59;4989564;28;20034;-74
2021/06/25 08:48:17;;;;;;;21.15;7.55;;;;;;;31.97;48.81;100240.19;4989442;28;20496;-74
2021/06/25 08:50:50;;;;;;;16.75;7.97;;;;;;;31.97;48.79;100242.88;4989444;28;20033;-71
2021/06/25 08:53:16;;;;;;;16.77;7.80;;;;;;;31.78;51.81;100207.38;4990018;28;20070;-73
2021/06/25 08:55:44;;;;;;;18.55;7.95;;;;;;;31.98;52.16;100231.22;4989809;28;20076;-73
2021/06/25 08:58:17;;;;;;;19.90;7.93;;;;;;;32.00;50.87;100232.88;4990076;28;20026;-70
2021/06/25 09:00:44;;;;;;;19.95;8.23;;;;;;;32.07;49.80;100231.56;4989724;28;20508;-74
2021/06/25 09:03:20;;;;;;;20.48;7.90;;;;;;;32.33;48.18;100226.56;4992965;28;20084;-71
2021/06/25 09:05:45;;;;;;;16.67;7.32;;;;;;;32.34;49.45;100230.97;4993773;28;20036;-74
2021/06/25 09:08:24;;;;;;;19.70;7.95;;;;;;;32.35;51.47;100231.81;4993695;28;20105;-74
2021/06/25 09:10:52;;;;;;;15.80;7.55;;;;;;;32.48;49.42;100205.25;5035153;28;20055;-72
2021/06/25 09:13:18;;;;;;;16.10;8.05;;;;;;;32.69;50.31;100235.19;5034222;28;20049;-72
2021/06/25 09:15:44;;;;;;;18.90;7.93;;;;;;;32.70;48.48;100227.06;5034091;28;20026;-74
2021/06/25 09:18:13;;;;;;;15.93;7.78;;;;;;;32.85;48.91;100217.28;5033815;28;20025;-74
2021/06/25 09:20:50;;;;;;;20.55;8.00;;;;;;;33.09;48.60;100226.56;5033193;28;20026;-74
2021/06/25 09:23:21;;;;;;;20.77;9.00;;;;;;;33.17;47.72;100216.25;5033729;28;20040;-72
2021/06/25 09:25:58;;;;;;;19.20;9.02;;;;;;;33.05;48.51;100196.50;5033729;28;20454;-74
2021/06/25 09:28:28;;;;;;;20.00;8.70;;;;;;;33.45;47.76;100228.81;5030713;28;20028;-73
2021/06/25 09:30:54;;;;;;;16.08;7.38;;;;;;;33.43;47.19;100228.03;5047730;28;20025;-72
2021/06/25 09:33:19;;;;;;;15.77;8.27;;;;;;;33.34;47.11;100225.97;5037131;28;20025;-71
2021/06/25 09:35:56;;;;;;;15.50;8.18;;;;;;;33.38;48.00;100224.78;5045165;28;20060;-70
2021/06/25 09:38:36;;;;;;;17.60;8.63;;;;;;;33.48;47.08;100222.41;5049916;28;20021;-68
2021/06/25 09:41:02;;;;;;;22.15;8.43;;;;;;;33.57;48.61;100215.59;5044595;28;20118;-72
2021/06/25 09:43:34;;;;;;;21.00;9.30;;;;;;;33.53;46.99;100182.81;5050262;28;20433;-71
2021/06/25 09:46:03;;;;;;;22.40;8.13;;;;;;;33.92;47.01;100209.81;5050706;28;20021;-69
2021/06/25 09:48:55;;;;;;;17.00;6.85;;;;;;;33.86;44.14;100209.28;5010014;28;20041;-73
2021/06/25 09:51:22;;;;;;;13.63;7.43;;;;;;;33.97;46.63;100213.94;5032884;28;20021;-73
2021/06/25 09:54:10;;;;;;;15.13;7.10;;;;;;;33.76;43.84;100209.91;5032686;28;20108;-73
2021/06/25 09:56:41;;;;;;;19.45;6.93;;;;;;;33.90;43.04;100195.66;5032888;28;20013;-72
2021/06/25 10:02:18;;;;;;;34.80;18.98;;;;;;;34.32;43.02;100191.97;5042902;28;20540;-69
2021/06/25 10:04:49;;;;;;;15.18;7.25;;;;;;;34.60;40.73;100192.78;5052652;28;20115;-69
2021/06/25 10:07:28;;;;;;;15.60;7.80;;;;;;;34.74;40.51;100191.84;5036495;28;20052;-68
2021/06/25 10:10:01;;;;;;;16.15;6.95;;;;;;;34.71;39.36;100170.63;5041317;28;20048;-70
2021/06/25 10:12:27;;;;;;;30.05;14.93;;;;;;;34.80;39.55;100182.53;4984977;28;1333457;-70
2021/06/25 10:14:54;;;;;;;19.42;6.55;;;;;;;34.70;39.55;100189.50;5049558;28;20502;-70
2021/06/25 10:17:26;;;;;;;16.67;9.55;;;;;;;34.39;40.75;100140.66;5032770;28;20044;-75
2021/06/25 10:19:57;;;;;;;15.07;6.78;;;;;;;34.69;43.62;100167.16;5033035;28;20372;-72
2021/06/25 10:22:26;;;;;;;13.60;6.57;;;;;;;34.25;42.26;100110.28;5047394;28;20024;-72
2021/06/25 10:24:52;;;;;;;15.40;6.23;;;;;;;34.58;41.19;100164.38;5049446;28;20021;-73
2021/06/25 10:27:21;;;;;;;15.95;6.43;;;;;;;35.01;42.26;100182.03;5050462;28;20267;-71
2021/06/25 10:29:47;;;;;;;15.23;7.03;;;;;;;35.27;39.90;100188.22;5048932;28;20382;-73
2021/06/25 10:32:16;;;;;;;16.85;6.68;;;;;;;35.40;41.06;100180.16;5048172;28;20421;-73
2021/06/25 10:34:43;;;;;;;16.60;7.40;;;;;;;35.28;40.58;100180.06;5050511;28;20024;-74
2021/06/25 10:37:13;;;;;;;13.80;6.70;;;;;;;35.31;38.84;100174.44;5048310;28;20066;-74
2021/06/25 10:39:38;;;;;;;15.50;6.40;;;;;;;35.37;41.70;100159.78;5024827;28;20068;-75
2021/06/25 10:42:09;;;;;;;15.85;6.70;;;;;;;35.38;40.40;100163.31;5049691;28;20479;-72
2021/06/25 10:44:36;;;;;;;16.02;6.03;;;;;;;35.36;39.86;100167.91;5048840;28;20028;-74
2021/06/25 10:47:21;;;;;;;11.15;5.88;;;;;;;35.61;38.22;100165.16;5050443;28;20028;-72
2021/06/25 10:49:58;;;;;;;15.75;6.03;;;;;;;35.77;37.16;100158.69;5041738;28;20017;-74
2021/06/25 10:52:29;;;;;;;15.95;6.35;;;;;;;35.82;37.83;100156.50;5046247;28;20445;-71
2021/06/25 10:55:04;;;;;;;13.20;6.53;;;;;;;35.96;39.66;100152.81;5048534;28;20017;-72
2021/06/25 10:57:31;;;;;;;18.90;6.35;;;;;;;36.24;39.38;100151.59;5048579;28;20486;-72
2021/06/25 10:59:57;;;;;;;23.23;5.90;;;;;;;35.97;38.55;100153.69;5047859;28;20047;-73
2021/06/25 11:02:44;;;;;;;15.00;5.65;;;;;;;36.00;35.81;100156.97;5048945;28;20037;-71
2021/06/25 11:05:21;;;;;;;13.27;6.07;;;;;;;35.81;37.66;100084.09;5050849;28;20048;-70
2021/06/25 11:07:48;;;;;;;16.55;5.63;;;;;;;36.26;36.66;100119.22;5049132;28;20028;-70
2021/06/25 11:10:33;;;;;;;17.55;5.53;;;;;;;36.81;36.63;100145.50;5050181;28;20087;-71
2021/06/25 11:13:17;;;;;;;17.13;6.10;;;;;;;37.05;36.74;100157.03;5046943;28;20426;-71
2021/06/25 11:15:48;;;;;;;11.63;5.97;;;;;;;37.23;37.68;100148.44;5038746;28;20491;-72
2021/06/25 11:18:18;;;;;;;10.48;5.72;;;;;;;37.17;33.99;100122.88;5029075;28;20033;-70
2021/06/25 11:20:54;;;;;;;17.50;5.95;;;;;;;37.55;33.47;100161.16;5028987;28;20021;-71
2021/06/25 11:23:44;;;;;;;16.20;5.35;;;;;;;37.64;34.55;100146.94;5028721;28;20026;-70
2021/06/25 11:26:19;;;;;;;14.82;5.38;;;;;;;37.74;33.89;100132.72;5029628;28;20031;-69